Time;durP1;ratioP1;P1;durP2;ratioP2;P2;SDS_P1;SDS_P2;PMS_P1;PMS_P2;Temp;Humidity;BMP_temperature;BMP_pressure;BME280_temperature;BME280_humidity;BME280_pressure;Samples;Min_cycle;Max_cycle;Signal;HPM_P1;HPM_P2
2021/08/22 00:01:26;;;;;;;12.55;9.18;;;16.40;99.90;;;;;;5115651;28;20090;-73
2021/08/22 00:03:51;;;;;;;9.32;8.23;;;16.40;99.90;;;;;;5115498;28;20196;-73
2021/08/22 00:06:17;;;;;;;10.13;8.07;;;16.40;99.90;;;;;;5115905;28;20043;-73
2021/08/22 00:08:43;;;;;;;11.70;7.90;;;16.40;99.90;;;;;;5116176;28;20052;-73
2021/08/22 00:11:09;;;;;;;11.05;8.65;;;16.50;99.90;;;;;;5097162;28;20023;-73
2021/08/22 00:13:34;;;;;;;11.25;8.25;;;16.50;99.90;;;;;;5115367;28;20391;-73
2021/08/22 00:16:01;;;;;;;10.65;7.45;;;16.50;99.90;;;;;;5115764;28;20097;-73
2021/08/22 00:18:27;;;;;;;12.13;8.15;;;16.50;99.90;;;;;;5114149;28;20062;-73
2021/08/22 00:20:54;;;;;;;9.88;7.90;;;16.60;99.90;;;;;;5115351;28;20047;-73
2021/08/22 00:23:19;;;;;;;11.20;8.25;;;16.60;99.90;;;;;;5115631;28;20031;-73
2021/08/22 00:25:45;;;;;;;14.27;8.68;;;16.60;99.90;;;;;;5097636;28;20027;-73
2021/08/22 00:28:11;;;;;;;11.30;8.70;;;16.70;99.90;;;;;;5096900;28;20486;-73
2021/08/22 00:30:37;;;;;;;9.70;8.02;;;16.70;99.90;;;;;;5115129;28;20430;-73
2021/08/22 00:33:02;;;;;;;9.00;7.82;;;16.80;99.90;;;;;;5115212;28;20027;-73
2021/08/22 00:35:28;;;;;;;11.23;7.85;;;16.70;99.90;;;;;;5115264;28;20069;-73
2021/08/22 00:37:53;;;;;;;10.77;7.97;;;16.80;99.90;;;;;;5114899;28;20020;-73
2021/08/22 00:40:19;;;;;;;11.73;8.02;;;16.80;99.90;;;;;;5115232;28;20042;-73
2021/08/22 00:42:48;;;;;;;9.60;8.00;;;16.80;99.90;;;;;;5115133;28;20043;-73
2021/08/22 00:45:14;;;;;;;10.48;8.05;;;16.80;99.90;;;;;;5115475;28;20027;-73
2021/08/22 00:47:41;;;;;;;11.93;7.78;;;16.80;99.90;;;;;;5113562;28;20110;-73
2021/08/22 00:50:07;;;;;;;12.13;8.23;;;16.90;99.90;;;;;;5115293;28;20035;-73
2021/08/22 00:52:33;;;;;;;13.00;7.85;;;16.90;99.90;;;;;;5115170;28;20032;-73
2021/08/22 00:55:02;;;;;;;12.18;8.18;;;16.90;99.90;;;;;;5114693;28;20016;-73
2021/08/22 00:57:28;;;;;;;11.13;8.20;;;17.00;99.90;;;;;;5114953;28;20020;-73
2021/08/22 00:59:53;;;;;;;14.13;7.97;;;17.00;99.90;;;;;;5095843;28;20176;-73
2021/08/22 01:02:35;;;;;;;10.43;8.10;;;17.00;99.90;;;;;;5114534;28;20020;-73
2021/08/22 01:05:05;;;;;;;11.80;8.05;;;17.00;99.90;;;;;;5114427;28;20046;-73
2021/08/22 01:07:42;;;;;;;8.98;8.02;;;17.00;99.90;;;;;;5114834;28;20475;-73
2021/08/22 01:10:09;;;;;;;10.43;7.53;;;17.00;99.90;;;;;;5114827;28;20405;-73
2021/08/22 01:12:47;;;;;;;12.32;8.30;;;17.10;99.90;;;;;;5114834;28;20023;-73
2021/08/22 01:15:14;;;;;;;10.23;8.25;;;17.10;99.90;;;;;;5114896;28;20489;-73
2021/08/22 01:17:45;;;;;;;11.32;8.30;;;17.20;99.90;;;;;;5114264;28;20023;-73
2021/08/22 01:20:15;;;;;;;9.20;7.53;;;17.20;99.90;;;;;;5114712;28;20432;-74
2021/08/22 01:22:43;;;;;;;11.35;8.05;;;17.20;99.90;;;;;;5114353;28;20078;-73
2021/08/22 01:25:10;;;;;;;9.38;7.82;;;17.20;99.90;;;;;;5114364;28;20050;-73
2021/08/22 01:27:41;;;;;;;10.30;7.28;;;17.20;99.90;;;;;;5114109;28;20034;-73
2021/08/22 01:30:13;;;;;;;11.63;7.63;;;17.30;99.90;;;;;;5114138;28;20043;-73
2021/08/22 01:32:43;;;;;;;12.57;7.50;;;17.30;99.90;;;;;;5114263;28;20027;-73
2021/08/22 01:35:12;;;;;;;11.48;7.70;;;17.30;99.90;;;;;;5113972;28;20037;-73
2021/08/22 01:37:39;;;;;;;10.52;7.35;;;17.30;99.90;;;;;;5114278;28;20403;-73
2021/08/22 01:40:07;;;;;;;10.50;7.47;;;17.30;99.90;;;;;;5113855;28;20437;-73
2021/08/22 01:42:36;;;;;;;8.25;7.05;;;17.30;99.90;;;;;;5113175;28;20024;-73
2021/08/22 01:45:07;;;;;;;9.73;7.20;;;17.30;99.90;;;;;;5114494;28;20515;-73
2021/08/22 01:47:35;;;;;;;9.10;6.90;;;17.30;99.90;;;;;;5113948;28;20015;-73
2021/08/22 01:50:06;;;;;;;9.68;6.80;;;17.30;99.90;;;;;;5113933;28;20020;-73
2021/08/22 01:52:33;;;;;;;10.45;7.18;;;17.30;99.90;;;;;;5113768;28;20024;-73
2021/08/22 01:55:01;;;;;;;8.75;7.03;;;17.30;99.90;;;;;;5114089;28;20023;-73
2021/08/22 01:57:30;;;;;;;8.65;7.20;;;17.30;99.90;;;;;;5114055;28;20016;-73
2021/08/22 01:59:57;;;;;;;11.60;7.25;;;17.30;99.90;;;;;;5113662;28;20051;-73
2021/08/22 02:02:22;;;;;;;10.32;7.25;;;17.20;99.90;;;;;;5095560;28;20089;-73
2021/08/22 02:05:01;;;;;;;9.23;6.82;;;17.30;99.90;;;;;;5113683;28;20142;-73
2021/08/22 02:07:32;;;;;;;11.15;7.40;;;17.20;99.90;;;;;;5113741;28;20024;-73
2021/08/22 02:10:13;;;;;;;10.50;7.20;;;17.20;99.90;;;;;;5113935;28;20020;-73
2021/08/22 02:12:39;;;;;;;11.75;7.18;;;17.10;99.90;;;;;;5113766;28;20414;-73
2021/08/22 02:15:23;;;;;;;11.77;6.68;;;17.10;99.90;;;;;;5113699;28;20472;-73
2021/08/22 02:18:02;;;;;;;8.40;6.30;;;17.10;99.90;;;;;;5113530;28;20019;-73
2021/08/22 02:20:28;;;;;;;8.80;6.75;;;17.10;99.90;;;;;;5095190;28;20019;-73
2021/08/22 02:22:55;;;;;;;7.65;5.80;;;17.10;99.90;;;;;;5112085;28;20085;-73
2021/08/22 02:25:21;;;;;;;9.45;6.72;;;17.10;99.90;;;;;;5113408;28;20039;-73
2021/08/22 02:27:47;;;;;;;9.80;6.40;;;17.00;99.90;;;;;;5113660;28;20028;-73
2021/08/22 02:30:14;;;;;;;7.90;6.32;;;17.00;99.90;;;;;;5113434;28;20023;-73
2021/08/22 02:32:40;;;;;;;8.63;6.40;;;17.00;99.90;;;;;;5113380;28;20023;-73
2021/08/22 02:35:06;;;;;;;11.45;6.10;;;17.00;99.90;;;;;;5113358;28;20410;-73
2021/08/22 02:37:33;;;;;;;7.30;5.90;;;17.00;99.90;;;;;;5113285;28;20064;-73
2021/08/22 02:39:59;;;;;;;8.93;6.22;;;17.00;99.90;;;;;;5113288;28;20043;-73
2021/08/22 02:42:25;;;;;;;8.20;5.88;;;17.00;99.90;;;;;;5094909;28;20055;-73
2021/08/22 02:44:50;;;;;;;8.82;6.13;;;17.00;99.90;;;;;;5113261;28;20023;-73
2021/08/22 02:47:16;;;;;;;10.23;6.13;;;17.00;99.90;;;;;;5095010;28;20026;-73
2021/08/22 02:49:42;;;;;;;8.90;5.97;;;17.00;99.90;;;;;;5113273;28;20016;-73
2021/08/22 02:52:08;;;;;;;9.82;6.47;;;17.00;99.90;;;;;;5113448;28;20016;-73
2021/08/22 02:54:34;;;;;;;8.00;6.22;;;17.00;99.90;;;;;;5113775;28;20414;-73
2021/08/22 02:57:00;;;;;;;7.38;5.90;;;17.00;99.90;;;;;;5113434;28;20072;-73
2021/08/22 02:59:25;;;;;;;8.02;5.88;;;17.00;99.90;;;;;;5095369;28;20391;-73
2021/08/22 03:01:54;;;;;;;8.68;6.20;;;17.00;99.90;;;;;;5113563;28;20031;-74
2021/08/22 03:04:21;;;;;;;7.55;5.95;;;17.10;99.90;;;;;;5112990;28;20048;-73
2021/08/22 03:06:46;;;;;;;8.63;6.13;;;17.10;99.90;;;;;;5113623;28;20024;-73
2021/08/22 03:09:12;;;;;;;10.70;6.55;;;17.10;99.90;;;;;;5113060;28;20467;-73
2021/08/22 03:11:38;;;;;;;9.95;6.35;;;17.10;99.90;;;;;;5113032;28;20460;-73
2021/08/22 03:14:05;;;;;;;8.80;5.88;;;17.10;99.90;;;;;;5113282;28;20023;-73
2021/08/22 03:16:31;;;;;;;7.25;6.07;;;17.20;99.90;;;;;;5113215;28;20054;-73
2021/08/22 03:18:56;;;;;;;7.68;5.90;;;17.20;99.90;;;;;;5113000;28;20020;-73
2021/08/22 03:21:22;;;;;;;7.72;6.55;;;17.20;99.90;;;;;;5113209;28;20102;-73
2021/08/22 03:23:47;;;;;;;8.48;6.32;;;17.30;99.90;;;;;;5115530;28;20055;-74
2021/08/22 03:26:13;;;;;;;8.00;6.38;;;17.30;99.90;;;;;;5116328;28;20020;-74
2021/08/22 03:28:39;;;;;;;9.05;6.68;;;17.40;99.90;;;;;;5116440;28;20025;-75
2021/08/22 03:31:05;;;;;;;8.57;6.40;;;17.40;99.90;;;;;;5117023;28;20027;-75
2021/08/22 03:33:31;;;;;;;8.18;6.50;;;17.40;99.90;;;;;;5116278;28;20372;-74
2021/08/22 03:35:57;;;;;;;12.82;7.63;;;17.40;99.90;;;;;;5116656;28;20084;-75
2021/08/22 03:38:22;;;;;;;11.02;7.18;;;17.50;99.90;;;;;;5116307;28;20027;-74
2021/08/22 03:40:48;;;;;;;11.23;7.78;;;17.50;99.90;;;;;;5116277;28;20391;-75
2021/08/22 03:43:13;;;;;;;11.38;7.63;;;17.60;99.90;;;;;;5097955;28;20372;-74
2021/08/22 03:45:41;;;;;;;10.93;7.53;;;17.60;99.90;;;;;;5097825;28;20020;-75
2021/08/22 03:48:07;;;;;;;11.25;7.75;;;17.50;99.90;;;;;;5116177;28;20086;-75
2021/08/22 03:50:34;;;;;;;11.35;7.47;;;17.60;99.90;;;;;;5097737;28;20055;-75
2021/08/22 03:53:00;;;;;;;10.00;7.55;;;17.60;99.90;;;;;;5116330;28;20031;-75
2021/08/22 03:55:26;;;;;;;13.13;7.80;;;17.60;99.90;;;;;;5116428;28;20073;-75
2021/08/22 03:57:52;;;;;;;10.50;8.32;;;17.50;99.90;;;;;;5116077;28;20016;-75
2021/08/22 04:00:17;;;;;;;12.98;8.02;;;17.50;99.90;;;;;;5115899;28;20464;-75
2021/08/22 04:02:43;;;;;;;11.80;8.07;;;17.40;99.90;;;;;;5116221;28;20020;-75
2021/08/22 04:05:11;;;;;;;15.13;7.45;;;17.40;99.90;;;;;;5115772;28;20136;-76
2021/08/22 04:07:37;;;;;;;11.38;8.30;;;17.40;99.90;;;;;;5116041;28;20414;-76
2021/08/22 04:10:06;;;;;;;16.73;8.68;;;17.30;99.90;;;;;;5116016;28;20020;-76
2021/08/22 04:12:33;;;;;;;14.07;8.23;;;17.30;99.90;;;;;;5115608;28;20074;-76
2021/08/22 04:14:59;;;;;;;10.23;7.72;;;17.20;99.90;;;;;;5115632;28;20053;-75
2021/08/22 04:17:24;;;;;;;12.15;7.93;;;17.20;99.90;;;;;;5097395;28;20028;-76
2021/08/22 04:19:50;;;;;;;13.00;8.23;;;17.20;99.90;;;;;;5115671;28;20022;-76
2021/08/22 04:22:16;;;;;;;12.43;8.65;;;17.10;99.90;;;;;;5115803;28;20460;-75
2021/08/22 04:24:42;;;;;;;13.27;8.90;;;17.10;99.90;;;;;;5115690;28;20028;-75
2021/08/22 04:27:07;;;;;;;9.68;8.68;;;17.00;99.90;;;;;;5115371;28;20027;-76
2021/08/22 04:29:37;;;;;;;14.35;8.40;;;17.00;99.90;;;;;;5097291;28;20015;-76
2021/08/22 04:32:03;;;;;;;11.18;8.15;;;16.90;99.90;;;;;;5115518;28;20031;-76
2021/08/22 04:34:29;;;;;;;11.90;9.07;;;16.90;99.90;;;;;;5114032;28;20126;-76
2021/08/22 04:36:55;;;;;;;12.13;9.55;;;16.90;99.90;;;;;;5115376;28;20364;-76
2021/08/22 04:39:20;;;;;;;12.63;8.80;;;16.90;99.90;;;;;;5115388;28;20068;-76
2021/08/22 04:41:46;;;;;;;11.55;9.10;;;16.80;99.90;;;;;;5096782;28;20122;-76
2021/08/22 04:44:13;;;;;;;11.65;8.70;;;16.80;99.90;;;;;;5115526;28;20073;-75
2021/08/22 04:46:39;;;;;;;13.07;9.32;;;16.80;99.90;;;;;;5114821;28;20035;-76
2021/08/22 04:49:05;;;;;;;12.35;8.50;;;16.80;99.90;;;;;;5115150;28;20372;-75
2021/08/22 04:51:30;;;;;;;12.45;9.27;;;16.80;99.90;;;;;;5114879;28;20019;-75
2021/08/22 04:53:59;;;;;;;11.32;9.15;;;16.80;99.90;;;;;;5114994;28;20521;-76
2021/08/22 04:56:25;;;;;;;10.38;7.43;;;16.80;99.90;;;;;;5096403;28;20019;-75
2021/08/22 04:58:50;;;;;;;10.75;8.27;;;16.70;99.90;;;;;;5096431;28;20543;-76
2021/08/22 05:01:16;;;;;;;13.43;8.50;;;16.80;99.90;;;;;;5114817;28;20028;-76
2021/08/22 05:03:42;;;;;;;10.00;7.95;;;16.80;99.90;;;;;;5114782;28;20054;-76
2021/08/22 05:06:09;;;;;;;10.25;7.80;;;16.80;99.90;;;;;;5114407;28;20116;-75
2021/08/22 05:08:35;;;;;;;9.30;7.30;;;16.80;99.90;;;;;;5114647;28;20028;-76
2021/08/22 05:11:00;;;;;;;11.27;7.03;;;16.80;99.90;;;;;;5096113;28;20050;-75
2021/08/22 05:13:27;;;;;;;9.30;7.45;;;16.90;99.90;;;;;;5114217;28;20027;-75
2021/08/22 05:15:55;;;;;;;9.05;6.88;;;16.90;99.90;;;;;;5114225;28;20023;-75
2021/08/22 05:18:25;;;;;;;9.25;6.78;;;16.90;99.90;;;;;;5114107;28;20019;-75
2021/08/22 05:20:52;;;;;;;10.38;7.53;;;16.90;99.90;;;;;;5114210;28;20531;-75
2021/08/22 05:23:19;;;;;;;9.70;7.03;;;16.90;99.90;;;;;;5114185;28;20102;-76
2021/08/22 05:25:45;;;;;;;10.48;7.18;;;16.90;99.90;;;;;;5114424;28;20030;-76
2021/08/22 05:28:11;;;;;;;12.40;7.20;;;16.80;99.90;;;;;;5114278;28;20023;-75
2021/08/22 05:30:36;;;;;;;12.05;7.10;;;16.80;99.90;;;;;;5114020;28;20027;-75
2021/08/22 05:33:02;;;;;;;9.55;6.20;;;16.80;99.90;;;;;;5095760;28;20026;-75
2021/08/22 05:35:28;;;;;;;8.95;6.18;;;16.80;99.90;;;;;;5113991;28;20051;-75
2021/08/22 05:37:54;;;;;;;9.60;6.55;;;16.90;99.90;;;;;;5113911;28;20054;-75
2021/08/22 05:40:19;;;;;;;11.20;6.93;;;16.80;99.90;;;;;;5114147;28;20015;-75
2021/08/22 05:42:45;;;;;;;8.32;6.47;;;16.80;99.90;;;;;;5113847;28;20035;-75
2021/08/22 05:45:11;;;;;;;9.98;5.95;;;16.80;99.90;;;;;;5113790;28;20031;-75
2021/08/22 05:47:36;;;;;;;8.68;6.03;;;16.80;99.90;;;;;;5113864;28;20130;-76
2021/08/22 05:50:04;;;;;;;9.43;6.03;;;16.80;99.90;;;;;;5113675;28;20019;-76
2021/08/22 05:52:33;;;;;;;10.18;6.75;;;16.80;99.90;;;;;;5113534;28;20016;-76
2021/08/22 05:54:59;;;;;;;8.10;5.82;;;16.70;99.90;;;;;;5108020;28;20025;-73
2021/08/22 05:57:24;;;;;;;8.07;6.60;;;16.80;99.90;;;;;;5107957;28;20012;-72
2021/08/22 05:59:50;;;;;;;7.68;6.30;;;16.80;99.90;;;;;;5107427;28;20040;-73
2021/08/22 06:02:15;;;;;;;10.43;6.75;;;16.80;99.90;;;;;;5106857;28;20034;-72
2021/08/22 06:04:41;;;;;;;7.10;6.00;;;16.80;99.90;;;;;;5107026;28;20069;-71
2021/08/22 06:07:07;;;;;;;7.80;5.40;;;16.70;99.90;;;;;;5105085;28;20496;-71
2021/08/22 06:09:33;;;;;;;8.35;5.40;;;16.70;99.90;;;;;;5105753;28;20035;-73
2021/08/22 06:12:00;;;;;;;6.90;5.97;;;16.70;99.90;;;;;;5106046;28;20031;-73
2021/08/22 06:14:26;;;;;;;6.32;5.22;;;16.80;99.90;;;;;;5107373;28;20031;-72
2021/08/22 06:16:53;;;;;;;8.13;5.18;;;16.80;99.90;;;;;;5102274;28;20135;-72
2021/08/22 06:19:21;;;;;;;6.72;4.60;;;16.90;99.90;;;;;;5100904;28;20099;-73
2021/08/22 06:21:46;;;;;;;6.95;4.90;;;17.00;99.90;;;;;;5107710;28;20190;-71
2021/08/22 06:24:12;;;;;;;7.10;4.45;;;17.10;99.90;;;;;;5107218;28;20102;-72
2021/08/22 06:26:37;;;;;;;6.28;4.30;;;17.20;99.90;;;;;;5107901;28;20040;-72
2021/08/22 06:29:03;;;;;;;6.55;4.07;;;17.30;99.90;;;;;;5107640;28;20128;-73
2021/08/22 06:31:28;;;;;;;7.63;4.30;;;17.40;99.90;;;;;;5108273;28;20395;-72
2021/08/22 06:33:54;;;;;;;5.65;4.20;;;17.50;99.90;;;;;;5107798;28;20476;-72
2021/08/22 06:36:21;;;;;;;6.65;4.30;;;17.70;99.90;;;;;;5107316;28;20028;-72
2021/08/22 06:38:46;;;;;;;5.13;3.83;;;17.70;99.90;;;;;;5108427;28;20023;-72
2021/08/22 06:41:12;;;;;;;5.25;4.20;;;17.80;99.90;;;;;;5107993;28;20027;-73
2021/08/22 06:43:38;;;;;;;7.13;4.28;;;17.80;99.90;;;;;;5097007;28;20028;-71
2021/08/22 06:46:03;;;;;;;5.70;4.10;;;17.90;99.90;;;;;;5103341;28;20038;-74
2021/08/22 06:48:29;;;;;;;5.53;3.88;;;17.90;99.90;;;;;;5107550;28;20039;-73
2021/08/22 06:50:54;;;;;;;4.38;3.33;;;17.90;99.90;;;;;;5108208;28;20092;-73
2021/08/22 06:53:20;;;;;;;5.75;3.75;;;18.00;99.90;;;;;;5107811;28;20096;-74
2021/08/22 06:55:45;;;;;;;5.72;4.18;;;18.00;99.90;;;;;;5108174;28;20577;-74
2021/08/22 06:58:11;;;;;;;5.18;3.65;;;18.00;99.90;;;;;;5109379;28;20047;-73
2021/08/22 07:00:36;;;;;;;4.97;3.50;;;18.00;99.90;;;;;;5113137;28;20036;-85
2021/08/22 07:03:02;;;;;;;5.47;3.90;;;18.10;99.90;;;;;;5112767;28;20524;-73
2021/08/22 07:05:27;;;;;;;4.53;3.30;;;18.10;99.90;;;;;;5104976;28;20055;-72
2021/08/22 07:07:53;;;;;;;5.13;3.58;;;18.10;99.90;;;;;;5109868;28;20155;-70
2021/08/22 07:10:19;;;;;;;6.03;3.85;;;18.10;99.90;;;;;;5110029;28;20084;-70
2021/08/22 07:12:44;;;;;;;4.43;3.38;;;18.20;99.90;;;;;;5105801;28;20035;-71
2021/08/22 07:15:13;;;;;;;5.30;3.35;;;18.20;99.90;;;;;;5110169;28;20030;-72
2021/08/22 07:17:38;;;;;;;4.40;3.58;;;18.20;99.90;;;;;;5112141;28;20415;-71
2021/08/22 07:20:06;;;;;;;4.45;3.10;;;18.30;99.90;;;;;;5112837;28;20030;-71
2021/08/22 07:22:31;;;;;;;4.05;3.10;;;18.50;99.90;;;;;;5111851;28;20198;-71
2021/08/22 07:24:59;;;;;;;5.35;3.20;;;18.50;99.90;;;;;;5112228;28;20440;-71
2021/08/22 07:27:25;;;;;;;7.70;3.13;;;18.70;99.90;;;;;;5091874;28;20073;-73
2021/08/22 07:29:51;;;;;;;5.22;3.35;;;18.80;99.90;;;;;;5109916;28;20070;-71
2021/08/22 07:32:17;;;;;;;3.88;2.80;;;18.90;99.90;;;;;;5110042;28;20023;-71
2021/08/22 07:34:42;;;;;;;4.10;3.08;;;18.90;99.90;;;;;;5110836;28;20039;-81
2021/08/22 07:37:08;;;;;;;3.92;3.03;;;19.00;99.90;;;;;;5110433;28;20094;-75
2021/08/22 07:39:34;;;;;;;3.60;2.40;;;19.00;99.90;;;;;;5110020;28;20019;-75
2021/08/22 07:42:00;;;;;;;4.90;3.25;;;19.10;99.90;;;;;;5110528;28;20027;-72
2021/08/22 07:44:26;;;;;;;4.63;2.75;;;19.20;99.90;;;;;;5110055;28;20081;-75
2021/08/22 07:46:51;;;;;;;5.38;3.22;;;19.40;99.90;;;;;;5109412;28;20033;-72
2021/08/22 07:49:19;;;;;;;3.50;2.80;;;19.50;99.90;;;;;;5110120;28;20111;-74
2021/08/22 07:51:45;;;;;;;3.70;2.72;;;19.50;99.90;;;;;;5109799;28;20027;-73
2021/08/22 07:54:11;;;;;;;4.78;2.50;;;19.60;99.90;;;;;;5108688;28;20043;-73
2021/08/22 07:56:40;;;;;;;4.38;3.10;;;19.70;99.90;;;;;;5109216;28;20032;-73
2021/08/22 07:59:05;;;;;;;3.65;2.92;;;19.70;99.90;;;;;;5106861;28;20046;-72
2021/08/22 08:01:31;;;;;;;3.72;2.67;;;19.80;99.90;;;;;;5108732;28;20028;-73
2021/08/22 08:03:56;;;;;;;3.38;2.50;;;19.80;99.90;;;;;;5109937;28;20436;-71
2021/08/22 08:06:22;;;;;;;5.75;3.15;;;19.80;99.90;;;;;;5110532;28;20541;-72
2021/08/22 08:08:47;;;;;;;4.70;2.53;;;19.80;99.90;;;;;;5109959;28;20031;-72
2021/08/22 08:11:13;;;;;;;4.68;2.60;;;19.90;99.90;;;;;;5110145;28;20027;-72
2021/08/22 08:13:38;;;;;;;4.15;2.83;;;20.00;99.90;;;;;;5110663;28;20039;-71
2021/08/22 08:16:04;;;;;;;4.45;3.00;;;20.00;99.90;;;;;;5110630;27;20024;-71
2021/08/22 08:18:30;;;;;;;3.92;2.63;;;20.10;99.90;;;;;;5089057;28;20436;-72
2021/08/22 08:20:56;;;;;;;3.38;2.65;;;20.20;99.90;;;;;;5110789;28;20103;-74
2021/08/22 08:23:21;;;;;;;4.03;2.58;;;20.30;99.90;;;;;;5110719;28;20073;-72
2021/08/22 08:25:47;;;;;;;4.10;2.88;;;20.30;99.90;;;;;;5112550;28;20024;-71
2021/08/22 08:28:13;;;;;;;3.85;3.10;;;20.50;99.90;;;;;;5109978;28;20024;-73
2021/08/22 08:30:38;;;;;;;5.00;3.17;;;20.50;99.90;;;;;;5106437;28;20031;-73
2021/08/22 08:33:04;;;;;;;4.05;2.80;;;20.50;99.90;;;;;;5093506;28;20051;-73
2021/08/22 08:35:30;;;;;;;5.53;2.90;;;20.60;99.90;;;;;;5104661;28;20035;-74
2021/08/22 08:37:55;;;;;;;4.88;2.70;;;20.60;99.90;;;;;;5099080;28;20023;-77
2021/08/22 08:40:22;;;;;;;3.78;2.80;;;20.60;99.90;;;;;;5098486;28;20495;-72
2021/08/22 08:42:58;;;;;;;4.40;3.13;;;20.60;99.90;;;;;;5097612;28;20113;-72
2021/08/22 08:45:27;;;;;;;3.53;2.78;;;20.60;99.90;;;;;;5096588;28;20077;-71
2021/08/22 08:47:53;;;;;;;4.15;3.15;;;20.60;99.90;;;;;;5099132;28;20023;-71
2021/08/22 08:50:23;;;;;;;3.80;2.80;;;20.70;99.90;;;;;;5100791;28;20034;-71
2021/08/22 08:53:05;;;;;;;3.78;2.78;;;20.70;99.90;;;;;;5098437;28;20039;-71
2021/08/22 08:55:48;;;;;;;5.60;3.05;;;20.80;99.90;;;;;;5099968;28;20061;-71
2021/08/22 08:58:14;;;;;;;3.35;2.50;;;20.80;99.90;;;;;;5105276;28;20024;-71
2021/08/22 09:00:43;;;;;;;5.75;3.05;;;20.90;99.90;;;;;;5100733;28;20043;-71
2021/08/22 09:03:13;;;;;;;5.88;2.50;;;20.90;99.90;;;;;;5087220;28;20043;-71
2021/08/22 09:05:48;;;;;;;3.90;2.67;;;21.10;99.90;;;;;;5094486;28;20525;-71
2021/08/22 09:08:47;;;;;;;3.25;2.80;;;21.20;99.90;;;;;;5098010;28;20027;-70
2021/08/22 09:11:15;;;;;;;4.53;2.90;;;21.30;99.90;;;;;;5096780;28;20019;-70
2021/08/22 09:14:00;;;;;;;3.50;2.70;;;21.60;99.90;;;;;;5075029;28;20028;-70
2021/08/22 09:17:03;;;;;;;4.55;3.05;;;21.70;99.90;;;;;;5090534;28;20924;-72
2021/08/22 09:19:55;;;;;;;4.10;2.63;;;21.80;99.90;;;;;;5097001;28;20125;-72
2021/08/22 09:22:58;;;;;;;3.67;2.65;;;21.80;99.90;;;;;;5094305;28;20027;-72
2021/08/22 09:25:36;;;;;;;4.47;3.05;;;21.80;99.90;;;;;;5092134;28;20023;-72
2021/08/22 09:28:22;;;;;;;5.75;3.15;;;21.90;99.90;;;;;;5096937;28;20089;-72
2021/08/22 09:31:09;;;;;;;5.35;2.80;;;21.80;99.90;;;;;;5095264;28;20043;-72
2021/08/22 09:34:12;;;;;;;4.38;3.20;;;21.90;99.90;;;;;;5088862;28;20056;-72
2021/08/22 09:37:19;;;;;;;4.25;3.17;;;21.90;99.90;;;;;;5089600;28;20040;-72
2021/08/22 09:40:22;;;;;;;5.15;3.05;;;22.00;99.90;;;;;;5094981;28;20048;-72
2021/08/22 09:43:12;;;;;;;3.75;2.88;;;22.10;99.90;;;;;;5092119;28;20032;-72
2021/08/22 09:46:15;;;;;;;5.60;3.50;;;22.10;99.90;;;;;;5091123;28;20384;-72
2021/08/22 09:49:19;;;;;;;4.38;3.13;;;22.20;99.90;;;;;;5092753;28;20488;-72
2021/08/22 09:52:23;;;;;;;6.45;3.60;;;22.20;99.90;;;;;;5097186;28;20077;-73
2021/08/22 09:55:26;;;;;;;4.60;3.28;;;22.20;99.90;;;;;;5049770;28;20036;-70
2021/08/22 09:58:30;;;;;;;5.38;3.28;;;22.50;99.90;;;;;;5093894;28;20107;-73
2021/08/22 10:01:22;;;;;;;3.97;2.85;;;22.70;99.90;;;;;;5090921;28;20486;-74
2021/08/22 10:04:26;;;;;;;5.80;3.15;;;23.00;99.90;;;;;;5093337;28;20035;-74
2021/08/22 10:07:13;;;;;;;4.07;2.80;;;23.40;99.90;;;;;;5094160;28;20032;-78
2021/08/22 10:09:44;;;;;;;3.75;2.65;;;23.70;99.90;;;;;;5097551;28;20023;-76
2021/08/22 10:12:09;;;;;;;4.90;3.20;;;23.90;99.90;;;;;;5091327;28;20112;-77
2021/08/22 10:14:37;;;;;;;3.60;2.85;;;24.00;99.90;;;;;;5095927;28;20102;-76
2021/08/22 10:17:02;;;;;;;4.60;2.67;;;24.10;99.90;;;;;;5076238;28;20031;-77
2021/08/22 10:19:29;;;;;;;4.47;2.70;;;24.30;99.90;;;;;;5097042;28;20024;-76
2021/08/22 10:22:11;;;;;;;3.13;2.80;;;24.10;99.90;;;;;;5094064;28;20036;-76
2021/08/22 10:24:37;;;;;;;3.58;3.03;;;24.20;99.90;;;;;;5096466;28;20046;-75
2021/08/22 10:27:04;;;;;;;3.70;2.97;;;24.10;99.90;;;;;;5093568;28;20484;-75
2021/08/22 10:29:33;;;;;;;4.70;3.10;;;23.90;99.90;;;;;;5091713;28;20023;-75
2021/08/22 10:32:01;;;;;;;4.75;3.05;;;23.70;99.90;;;;;;5097272;28;20031;-75
2021/08/22 10:34:27;;;;;;;3.67;2.90;;;23.60;99.90;;;;;;5106746;27;20417;-75
2021/08/22 10:36:54;;;;;;;3.80;2.90;;;23.60;99.90;;;;;;5101456;28;20020;-75
2021/08/22 10:39:22;;;;;;;3.85;2.80;;;23.50;99.90;;;;;;5111091;28;20040;-74
2021/08/22 10:41:49;;;;;;;4.40;2.78;;;23.60;99.90;;;;;;5104974;28;20739;-75
2021/08/22 10:44:36;;;;;;;4.60;3.20;;;23.70;99.90;;;;;;5106653;28;20043;-75
2021/08/22 10:47:21;;;;;;;3.95;3.05;;;23.70;99.90;;;;;;5109349;28;20559;-74
2021/08/22 10:49:53;;;;;;;4.10;3.15;;;23.90;99.90;;;;;;5091153;28;20086;-77
2021/08/22 10:52:24;;;;;;;3.90;2.97;;;24.00;99.90;;;;;;5108210;27;20035;-76
2021/08/22 10:55:14;;;;;;;3.85;2.65;;;23.80;99.90;;;;;;5119567;27;20027;-76
2021/08/22 10:57:43;;;;;;;3.70;2.90;;;23.90;99.90;;;;;;5096549;28;20432;-75
2021/08/22 11:00:26;;;;;;;4.30;3.28;;;23.90;99.90;;;;;;5110019;28;20027;-75
2021/08/22 11:02:56;;;;;;;4.97;3.33;;;23.80;99.90;;;;;;5097427;28;20023;-76
2021/08/22 11:05:25;;;;;;;4.60;3.20;;;23.70;99.90;;;;;;5110307;28;20063;-75
2021/08/22 11:07:52;;;;;;;4.20;2.95;;;23.70;99.90;;;;;;5110266;28;20028;-76
2021/08/22 11:10:23;;;;;;;3.90;3.40;;;23.70;99.90;;;;;;5110356;28;20061;-76
2021/08/22 11:12:53;;;;;;;3.78;3.03;;;23.80;99.90;;;;;;5110430;28;20543;-76
2021/08/22 11:15:28;;;;;;;6.15;3.15;;;24.00;99.90;;;;;;5110349;28;20384;-74
2021/08/22 11:17:58;;;;;;;4.05;3.30;;;24.10;99.90;;;;;;5109366;28;20107;-76
2021/08/22 11:20:29;;;;;;;3.92;3.00;;;24.20;99.90;;;;;;5102232;28;20091;-76
2021/08/22 11:23:09;;;;;;;3.75;3.15;;;24.20;99.90;;;;;;5111149;28;20016;-72
2021/08/22 11:25:35;;;;;;;4.63;3.30;;;24.10;99.90;;;;;;5109570;28;20032;-76
2021/08/22 11:28:06;;;;;;;4.32;3.00;;;24.20;99.90;;;;;;5104040;28;20049;-71
2021/08/22 11:30:32;;;;;;;5.22;3.00;;;24.20;99.90;;;;;;5101577;28;20034;-72
2021/08/22 11:32:58;;;;;;;3.88;3.13;;;24.10;99.90;;;;;;5093110;28;20024;-72
2021/08/22 11:35:25;;;;;;;3.40;2.80;;;23.90;99.90;;;;;;5102061;28;20364;-72
2021/08/22 11:37:52;;;;;;;4.00;3.22;;;23.80;99.90;;;;;;5109018;28;20016;-73
2021/08/22 11:40:21;;;;;;;9.02;3.03;;;23.60;99.90;;;;;;5100893;28;20019;-72
2021/08/22 11:42:57;;;;;;;4.07;2.85;;;23.50;99.90;;;;;;5098714;28;20027;-71
2021/08/22 11:45:29;;;;;;;4.57;3.08;;;23.30;99.90;;;;;;5100734;28;20485;-71
2021/08/22 11:47:56;;;;;;;6.07;3.60;;;23.30;99.90;;;;;;5105148;28;20027;-79
2021/08/22 11:50:27;;;;;;;3.30;2.90;;;23.30;99.90;;;;;;5100554;28;20070;-73
2021/08/22 11:52:53;;;;;;;3.78;2.95;;;23.20;99.90;;;;;;5099400;28;20028;-71
2021/08/22 11:55:21;;;;;;;4.90;3.30;;;23.30;99.90;;;;;;5103724;28;20821;-71
2021/08/22 11:57:47;;;;;;;3.50;2.67;;;23.40;99.90;;;;;;5103219;28;20112;-71
2021/08/22 12:00:17;;;;;;;7.72;3.35;;;23.40;99.90;;;;;;5101229;28;20896;-73
2021/08/22 12:02:57;;;;;;;4.07;2.70;;;23.50;99.90;;;;;;5103327;28;20028;-72
2021/08/22 12:05:27;;;;;;;4.32;2.78;;;23.60;99.90;;;;;;5101694;28;20609;-71
2021/08/22 12:08:16;;;;;;;3.85;3.03;;;23.70;99.90;;;;;;5104461;28;21184;-73
2021/08/22 12:10:42;;;;;;;4.32;2.90;;;23.80;99.90;;;;;;5107142;28;20056;-72
2021/08/22 12:13:15;;;;;;;5.10;3.50;;;23.60;99.90;;;;;;5103510;28;20547;-71
2021/08/22 12:15:40;;;;;;;4.15;3.10;;;23.70;99.90;;;;;;5102737;28;20032;-72
2021/08/22 12:18:17;;;;;;;4.90;3.10;;;23.60;99.90;;;;;;5105397;28;20027;-73
2021/08/22 12:20:45;;;;;;;3.70;2.80;;;23.50;99.90;;;;;;5103588;28;20585;-71
2021/08/22 12:23:12;;;;;;;4.70;3.03;;;23.40;99.90;;;;;;5097616;28;20361;-72
2021/08/22 12:25:42;;;;;;;4.13;3.40;;;23.20;99.90;;;;;;5098669;28;20039;-71
2021/08/22 12:28:23;;;;;;;5.85;3.47;;;23.30;99.90;;;;;;5101106;28;20027;-71
2021/08/22 12:31:00;;;;;;;3.72;3.10;;;23.30;99.90;;;;;;5103814;28;20058;-70
2021/08/22 12:33:40;;;;;;;4.70;3.40;;;23.20;99.90;;;;;;5100601;28;20024;-72
2021/08/22 12:36:11;;;;;;;5.15;2.90;;;23.20;99.90;;;;;;5100441;28;20016;-71
2021/08/22 12:38:46;;;;;;;5.25;3.95;;;23.10;99.90;;;;;;5100236;28;20052;-75
2021/08/22 12:41:25;;;;;;;4.90;3.22;;;23.20;99.90;;;;;;5098419;28;20480;-76
2021/08/22 12:43:51;;;;;;;4.45;3.47;;;23.30;99.90;;;;;;5104681;28;20028;-75
2021/08/22 12:46:17;;;;;;;5.18;2.78;;;23.40;99.90;;;;;;5109781;28;20460;-74
2021/08/22 12:48:44;;;;;;;4.38;2.78;;;23.40;99.90;;;;;;5102951;28;20116;-78
2021/08/22 12:51:10;;;;;;;4.20;3.10;;;23.50;99.90;;;;;;5102721;28;20020;-76
2021/08/22 12:53:36;;;;;;;4.88;3.25;;;23.60;99.90;;;;;;5113395;28;20023;-77
2021/08/22 12:56:02;;;;;;;4.65;3.25;;;23.50;99.90;;;;;;5106118;28;20440;-77